Time;durP1;ratioP1;P1;durP2;ratioP2;P2;SDS_P1;SDS_P2;PMS_P1;PMS_P2;Temp;Humidity;BMP_temperature;BMP_pressure;BME280_temperature;BME280_humidity;BME280_pressure;Samples;Min_cycle;Max_cycle;Signal;HPM_P1;HPM_P2
2021/07/06 00:02:16;;;;;;;18.55;12.85;;;18.40;87.50;;;;;;5060039;28;20127;-85
2021/07/06 00:04:42;;;;;;;10.35;7.55;;;18.40;87.10;;;;;;5058738;28;20071;-85
2021/07/06 00:07:07;;;;;;;7.22;4.43;;;18.40;86.80;;;;;;5058763;28;20025;-84
2021/07/06 00:09:33;;;;;;;13.13;8.48;;;18.40;85.40;;;;;;5060042;28;20031;-85
2021/07/06 00:11:59;;;;;;;9.00;4.60;;;18.40;86.60;;;;;;5061229;28;20092;-85
2021/07/06 00:14:24;;;;;;;8.40;5.85;;;18.40;85.30;;;;;;5062330;28;20099;-85
2021/07/06 00:16:50;;;;;;;8.15;4.95;;;18.40;85.60;;;;;;5061472;28;20017;-87
2021/07/06 00:19:15;;;;;;;9.90;6.22;;;18.40;85.90;;;;;;5079912;28;20354;-85
2021/07/06 00:21:41;;;;;;;10.18;4.65;;;18.40;87.10;;;;;;5060147;28;20663;-85
2021/07/06 00:24:07;;;;;;;12.52;7.63;;;18.40;86.60;;;;;;5060827;28;20029;-85
2021/07/06 00:26:33;;;;;;;12.52;8.57;;;18.40;88.30;;;;;;5079976;28;20044;-87
2021/07/06 00:28:58;;;;;;;9.73;3.75;;;18.40;85.90;;;;;;5063129;28;20028;-86
2021/07/06 00:31:24;;;;;;;5.75;3.47;;;18.40;85.50;;;;;;5061946;28;20027;-87
2021/07/06 00:33:51;;;;;;;6.35;3.75;;;18.40;85.10;;;;;;5063404;28;20079;-87
2021/07/06 00:36:17;;;;;;;9.63;5.60;;;18.40;84.80;;;;;;5064084;28;20032;-86
2021/07/06 00:38:42;;;;;;;6.70;3.33;;;18.50;86.90;;;;;;5063874;28;20016;-87
2021/07/06 00:41:09;;;;;;;7.53;3.50;;;18.50;86.10;;;;;;5064332;28;20043;-87
2021/07/06 00:43:36;;;;;;;5.75;3.92;;;18.50;86.30;;;;;;5060957;28;20025;-85
2021/07/06 00:46:02;;;;;;;5.28;3.10;;;18.50;86.70;;;;;;5059166;28;20174;-85
2021/07/06 00:48:28;;;;;;;5.97;3.65;;;18.60;87.50;;;;;;5060281;28;20028;-86
2021/07/06 00:50:55;;;;;;;6.25;2.05;;;18.60;87.90;;;;;;5059404;28;20057;-85
2021/07/06 00:53:21;;;;;;;4.75;2.72;;;18.60;85.30;;;;;;5059547;28;20028;-85
2021/07/06 00:55:49;;;;;;;4.38;3.00;;;18.70;84.20;;;;;;5077744;28;20032;-86
2021/07/06 00:58:17;;;;;;;4.45;2.47;;;18.70;85.20;;;;;;5059812;28;20036;-85
2021/07/06 01:00:43;;;;;;;3.72;1.98;;;18.80;87.90;;;;;;5059041;28;20020;-86
2021/07/06 01:03:10;;;;;;;4.43;1.77;;;18.70;85.60;;;;;;5059859;28;20051;-86
2021/07/06 01:05:36;;;;;;;3.88;2.38;;;18.80;85.20;;;;;;5059491;28;20028;-85
2021/07/06 01:08:02;;;;;;;6.38;2.67;;;18.80;85.10;;;;;;5059552;28;20028;-86
2021/07/06 01:10:28;;;;;;;3.85;1.83;;;18.80;85.00;;;;;;5061679;28;20074;-86
2021/07/06 01:12:54;;;;;;;6.30;2.35;;;18.80;85.50;;;;;;5066690;28;20020;-86
2021/07/06 01:15:25;;;;;;;5.88;2.85;;;18.80;86.40;;;;;;5063678;28;20028;-83
2021/07/06 01:18:21;;;;;;;3.90;2.00;;;18.80;85.80;;;;;;5073910;28;20032;-86
2021/07/06 01:20:51;;;;;;;3.63;1.60;;;18.80;85.90;;;;;;5040820;28;20044;-83
2021/07/06 01:23:21;;;;;;;4.78;2.55;;;18.80;85.70;;;;;;5057695;28;20021;-85
2021/07/06 01:25:49;;;;;;;5.47;2.17;;;18.80;85.10;;;;;;5058873;28;20036;-86
2021/07/06 01:28:15;;;;;;;3.80;1.92;;;18.80;86.50;;;;;;5059727;28;20021;-85
2021/07/06 01:30:40;;;;;;;5.00;2.65;;;18.80;87.20;;;;;;5058293;28;20024;-86
2021/07/06 01:33:07;;;;;;;5.32;2.00;;;18.80;85.20;;;;;;5058627;28;20406;-86
2021/07/06 01:35:32;;;;;;;4.57;2.17;;;18.90;86.10;;;;;;5059159;28;20028;-85
2021/07/06 01:38:00;;;;;;;6.05;2.45;;;18.80;86.20;;;;;;5059708;28;20029;-83
2021/07/06 01:40:28;;;;;;;4.60;1.70;;;18.80;85.80;;;;;;5059197;28;20031;-86
2021/07/06 01:42:55;;;;;;;4.55;2.40;;;18.90;85.20;;;;;;5061617;28;20016;-85
2021/07/06 01:45:23;;;;;;;2.72;1.70;;;18.80;88.40;;;;;;5078946;28;20045;-86
2021/07/06 01:47:50;;;;;;;4.47;1.70;;;18.90;86.90;;;;;;5074652;28;20084;-81
2021/07/06 01:50:18;;;;;;;2.95;1.50;;;18.80;85.90;;;;;;5086703;28;20068;-85
2021/07/06 01:52:49;;;;;;;3.28;1.73;;;18.90;85.20;;;;;;5068658;28;20021;-85
2021/07/06 01:55:17;;;;;;;6.28;1.95;;;18.80;85.30;;;;;;5065494;28;20017;-85
2021/07/06 01:57:43;;;;;;;7.10;1.40;;;18.80;85.50;;;;;;5070093;28;20070;-86
2021/07/06 02:00:12;;;;;;;4.60;1.60;;;18.70;86.70;;;;;;5058567;28;20021;-86
2021/07/06 02:02:38;;;;;;;3.13;1.20;;;18.80;86.70;;;;;;5076072;28;20021;-86
2021/07/06 02:05:29;;;;;;;1.98;1.02;;;18.80;85.20;;;;;;5057798;28;20048;-84
2021/07/06 02:07:56;;;;;;;5.00;1.55;;;18.70;84.30;;;;;;5058425;28;20468;-86
2021/07/06 02:10:22;;;;;;;4.20;1.60;;;18.70;86.70;;;;;;5058722;28;20115;-86
2021/07/06 02:12:48;;;;;;;3.65;1.20;;;18.70;86.30;;;;;;5057613;28;20043;-86
2021/07/06 02:15:16;;;;;;;3.33;1.27;;;18.70;85.50;;;;;;5059807;28;20029;-87
2021/07/06 02:17:42;;;;;;;3.13;1.08;;;18.70;85.00;;;;;;5058101;28;20085;-85
2021/07/06 02:20:10;;;;;;;2.08;1.27;;;18.70;85.70;;;;;;5059661;28;20053;-86
2021/07/06 02:22:36;;;;;;;3.50;1.50;;;18.60;87.40;;;;;;5059269;28;20027;-86
2021/07/06 02:25:05;;;;;;;4.03;1.42;;;18.60;86.90;;;;;;5057630;28;20056;-86
2021/07/06 02:27:31;;;;;;;2.08;1.15;;;18.60;86.60;;;;;;5058709;28;20017;-85
2021/07/06 02:29:56;;;;;;;2.95;1.15;;;18.60;86.10;;;;;;5059225;28;20358;-84
2021/07/06 02:32:22;;;;;;;2.17;1.15;;;18.60;86.00;;;;;;5057687;28;20368;-85
2021/07/06 02:34:47;;;;;;;3.88;1.42;;;18.50;86.40;;;;;;5076242;28;20029;-87
2021/07/06 02:37:13;;;;;;;2.70;1.10;;;18.50;87.10;;;;;;5059379;28;20533;-87
2021/07/06 02:39:39;;;;;;;2.42;1.00;;;18.50;86.00;;;;;;5060331;28;20021;-86
2021/07/06 02:42:04;;;;;;;2.83;1.30;;;18.30;86.30;;;;;;5059713;28;20027;-88
2021/07/06 02:44:30;;;;;;;5.03;1.90;;;18.30;85.30;;;;;;5058598;28;20028;-88
2021/07/06 02:46:56;;;;;;;3.00;1.60;;;18.30;87.60;;;;;;5057334;28;20127;-85
2021/07/06 02:49:21;;;;;;;3.30;1.90;;;18.20;88.60;;;;;;5058160;28;20021;-86
2021/07/06 02:51:47;;;;;;;3.42;1.52;;;18.20;88.80;;;;;;5058093;28;20092;-87
2021/07/06 02:54:12;;;;;;;2.38;1.48;;;18.20;90.30;;;;;;5060333;28;20096;-86
2021/07/06 02:56:38;;;;;;;2.90;1.67;;;18.20;89.60;;;;;;5060956;28;20089;-88
2021/07/06 02:59:03;;;;;;;3.10;1.92;;;18.20;89.70;;;;;;5061389;28;20112;-86
2021/07/06 03:01:30;;;;;;;4.70;1.52;;;18.10;90.00;;;;;;5068539;28;20020;-87
2021/07/06 03:03:56;;;;;;;2.80;1.15;;;18.10;89.60;;;;;;5076582;28;20032;-87
2021/07/06 03:06:22;;;;;;;3.25;1.10;;;18.00;87.40;;;;;;5073396;28;20056;-87
2021/07/06 03:08:48;;;;;;;3.25;1.60;;;18.00;86.80;;;;;;5062945;28;20111;-87
2021/07/06 03:11:14;;;;;;;3.88;1.20;;;18.10;87.90;;;;;;5060819;28;20111;-85
2021/07/06 03:13:40;;;;;;;1.52;0.98;;;18.00;88.70;;;;;;5061558;28;20020;-86
2021/07/06 03:16:06;;;;;;;2.13;1.10;;;18.10;88.20;;;;;;5062246;28;20062;-86
2021/07/06 03:18:32;;;;;;;2.17;1.00;;;18.10;86.80;;;;;;5078766;28;20035;-86
2021/07/06 03:20:57;;;;;;;4.35;1.65;;;18.10;87.50;;;;;;5061066;28;20024;-86
